Time;durP1;ratioP1;P1;durP2;ratioP2;P2;SDS_P1;SDS_P2;PMS_P1;PMS_P2;Temp;Humidity;BMP_temperature;BMP_pressure;BME280_temperature;BME280_humidity;BME280_pressure;Samples;Min_cycle;Max_cycle;Signal;HPM_P1;HPM_P2
2022/11/08 00:02:15;;;;;;;1.20;1.13;;;12.10;1.00;;;;;;4930866;29;20522;-74
2022/11/08 00:04:43;;;;;;;0.60;0.10;;;12.10;1.00;;;;;;4932846;29;20495;-74
2022/11/08 00:15:32;;;;;;;0.50;0.10;;;12.10;1.00;;;;;;4932127;29;20491;-74
2022/11/08 00:18:00;;;;;;;0.50;0.10;;;12.10;1.00;;;;;;4933855;29;20465;-73
2022/11/08 00:20:28;;;;;;;0.60;0.10;;;12.10;1.00;;;;;;4932368;29;20467;-73
2022/11/08 00:22:57;;;;;;;0.50;0.10;;;12.20;1.00;;;;;;4934274;29;20532;-73
2022/11/08 00:25:25;;;;;;;0.50;0.10;;;12.10;1.00;;;;;;4952699;23;20549;-75
2022/11/08 00:27:52;;;;;;;0.57;0.10;;;12.10;1.00;;;;;;4949427;29;20830;-75
2022/11/08 00:30:20;;;;;;;0.50;0.10;;;12.10;1.00;;;;;;4949429;29;20465;-75
2022/11/08 00:32:48;;;;;;;0.50;0.10;;;12.00;1.00;;;;;;4948560;29;20463;-74
2022/11/08 00:35:16;;;;;;;0.60;0.10;;;12.00;1.00;;;;;;4949111;29;21017;-74
2022/11/08 00:37:43;;;;;;;0.60;0.10;;;12.00;1.00;;;;;;4949922;29;20487;-75
2022/11/08 00:40:13;;;;;;;0.50;0.10;;;11.90;1.00;;;;;;4947257;29;21031;-74
2022/11/08 00:42:41;;;;;;;0.50;0.10;;;11.90;1.00;;;;;;4950418;29;20458;-73
2022/11/08 00:45:09;;;;;;;0.50;0.10;;;11.90;1.00;;;;;;4947117;29;21008;-75
2022/11/08 00:47:37;;;;;;;0.50;0.10;;;11.90;1.00;;;;;;4949507;29;20466;-75
2022/11/08 00:50:05;;;;;;;0.50;0.10;;;11.90;1.00;;;;;;4949493;29;20567;-74
2022/11/08 00:52:33;;;;;;;0.60;0.10;;;11.90;1.00;;;;;;4948088;29;20459;-73
2022/11/08 00:55:00;;;;;;;0.50;0.10;;;11.90;1.00;;;;;;4949907;29;20550;-76
2022/11/08 00:57:30;;;;;;;0.53;0.10;;;11.80;1.00;;;;;;4948830;29;20829;-75
2022/11/08 05:00:45;;;;;;;0.50;0.10;;;;;;;;;;5851435;23;21765;-74
2022/11/08 05:03:36;;;;;;;0.50;0.10;;;;;;;;;;4954337;29;20442;-75
2022/11/08 05:06:06;;;;;;;0.50;0.10;;;10.40;1.00;;;;;;4947368;29;20452;-74
2022/11/08 05:08:34;;;;;;;0.50;0.10;;;10.30;1.00;;;;;;4955368;29;20570;-74
2022/11/08 05:11:04;;;;;;;0.50;0.10;;;10.30;1.00;;;;;;4956235;29;20495;-73
2022/11/08 05:13:35;;;;;;;0.50;0.10;;;10.30;1.00;;;;;;4942714;29;20452;-72
2022/11/08 05:16:07;;;;;;;0.50;0.10;;;10.30;1.00;;;;;;4959887;23;20498;-73
2022/11/08 05:18:35;;;;;;;0.50;0.10;;;10.20;1.00;;;;;;4951022;29;20455;-74
2022/11/08 05:23:50;;;;;;;0.50;0.10;;;10.20;1.00;;;;;;4952222;29;20455;-74
2022/11/08 05:26:19;;;;;;;0.50;0.10;;;10.10;1.00;;;;;;4953901;28;20485;-73
2022/11/08 05:28:47;;;;;;;3.13;3.00;;;10.10;1.00;;;;;;4953974;29;20549;-73
2022/11/08 05:31:17;;;;;;;0.60;0.10;;;10.10;1.00;;;;;;4952915;29;20519;-74
2022/11/08 05:33:45;;;;;;;0.50;0.10;;;10.10;1.00;;;;;;4953575;29;20443;-74
2022/11/08 05:36:15;;;;;;;0.50;0.10;;;10.00;1.00;;;;;;4954239;29;20882;-74
2022/11/08 05:38:43;;;;;;;0.60;0.10;;;10.00;1.00;;;;;;4954184;28;20456;-75
2022/11/08 05:41:14;;;;;;;0.50;0.10;;;10.00;1.00;;;;;;4973307;28;20485;-73
2022/11/08 05:43:42;;;;;;;0.50;0.10;;;10.00;1.00;;;;;;4961753;28;20459;-74
2022/11/08 05:46:10;;;;;;;0.50;0.10;;;10.00;1.00;;;;;;4952363;28;20474;-74
2022/11/08 05:48:41;;;;;;;1.50;1.40;;;9.90;1.00;;;;;;4961021;28;20525;-75
2022/11/08 05:51:10;;;;;;;0.50;0.20;;;9.90;1.00;;;;;;4948711;29;20447;-72
2022/11/08 05:53:38;;;;;;;0.50;0.10;;;9.90;1.00;;;;;;4953603;28;20459;-74
2022/11/08 05:56:07;;;;;;;0.50;0.10;;;9.80;1.00;;;;;;4949507;28;21062;-73
2022/11/08 05:58:36;;;;;;;0.50;0.10;;;9.80;1.00;;;;;;4943647;28;20463;-74
2022/11/08 06:01:06;;;;;;;0.50;0.10;;;9.90;1.00;;;;;;4951793;28;20482;-74
2022/11/08 06:03:34;;;;;;;0.50;0.10;;;9.90;1.00;;;;;;4944191;28;20550;-74
2022/11/08 06:06:05;;;;;;;0.50;0.20;;;9.90;1.00;;;;;;4951351;28;20485;-76
2022/11/08 06:08:33;;;;;;;0.50;0.10;;;9.90;1.00;;;;;;4954144;28;20459;-74
2022/11/08 06:11:05;;;;;;;0.50;0.10;;;9.90;1.00;;;;;;4950889;28;20975;-75
2022/11/08 06:13:34;;;;;;;0.50;0.10;;;9.80;1.00;;;;;;4950091;28;20458;-75
2022/11/08 06:16:03;;;;;;;0.50;0.10;;;9.80;1.00;;;;;;4953585;28;20513;-75
2022/11/08 06:18:31;;;;;;;0.50;0.10;;;9.90;1.00;;;;;;4943957;28;20666;-73
2022/11/08 06:21:00;;;;;;;0.50;0.10;;;9.90;1.00;;;;;;4951837;29;20462;-75
2022/11/08 06:23:30;;;;;;;0.50;0.10;;;9.90;1.00;;;;;;4950964;28;20942;-73
2022/11/08 06:25:58;;;;;;;0.50;0.10;;;9.80;1.00;;;;;;4945486;28;20486;-74
2022/11/08 06:28:26;;;;;;;0.50;0.30;;;9.80;1.00;;;;;;4952438;28;20566;-75
2022/11/08 06:30:54;;;;;;;0.50;0.10;;;9.80;1.00;;;;;;4943821;29;20488;-74
2022/11/08 06:33:22;;;;;;;0.50;0.10;;;9.90;1.00;;;;;;4949448;28;21063;-74
2022/11/08 06:35:50;;;;;;;0.50;0.10;;;9.80;1.00;;;;;;4954931;28;20486;-74
2022/11/08 06:38:18;;;;;;;0.50;0.10;;;9.80;1.00;;;;;;4950412;28;20853;-74
2022/11/08 06:40:47;;;;;;;0.50;0.10;;;9.90;1.00;;;;;;4955093;28;20451;-74
2022/11/08 06:43:15;;;;;;;0.50;0.10;;;9.80;1.00;;;;;;4962715;28;20910;-74
2022/11/08 06:45:47;;;;;;;0.50;0.10;;;9.90;1.00;;;;;;4967520;28;20548;-75
2022/11/08 06:48:15;;;;;;;0.50;0.10;;;9.90;1.00;;;;;;4961954;28;20451;-74
2022/11/08 06:50:43;;;;;;;0.50;0.10;;;9.80;1.00;;;;;;4975622;28;20478;-72
2022/11/08 06:53:13;;;;;;;0.50;0.20;;;10.00;1.00;;;;;;4957634;28;20447;-69
2022/11/08 06:55:41;;;;;;;0.60;0.30;;;10.20;1.00;;;;;;4954081;29;20474;-69
2022/11/08 06:58:11;;;;;;;0.50;0.10;;;10.10;1.00;;;;;;4953175;28;20863;-69
2022/11/08 07:00:39;;;;;;;0.50;0.10;;;10.10;1.00;;;;;;4936311;29;20448;-68
2022/11/08 07:03:07;;;;;;;0.50;0.10;;;10.10;1.00;;;;;;4951251;28;20458;-70
2022/11/08 07:05:35;;;;;;;0.50;0.10;;;10.10;1.00;;;;;;4955901;28;20554;-70
2022/11/08 07:08:04;;;;;;;0.50;0.10;;;10.10;1.00;;;;;;4961505;28;20454;-69
2022/11/08 07:10:33;;;;;;;0.50;0.10;;;10.00;1.00;;;;;;4969440;28;21064;-68
2022/11/08 07:13:02;;;;;;;0.60;0.57;;;10.00;1.00;;;;;;4962852;28;20454;-70
2022/11/08 07:15:32;;;;;;;0.50;0.10;;;10.10;1.00;;;;;;4974623;28;20888;-68
2022/11/08 07:18:01;;;;;;;0.50;0.10;;;10.10;1.00;;;;;;4974675;28;20485;-68
2022/11/08 07:20:30;;;;;;;0.50;0.10;;;10.10;1.00;;;;;;4956422;28;20451;-69
2022/11/08 07:22:58;;;;;;;0.50;0.10;;;10.10;1.00;;;;;;4955129;28;20451;-69
2022/11/08 07:25:28;;;;;;;0.50;0.10;;;10.10;1.00;;;;;;4953212;29;20554;-70
2022/11/08 07:27:55;;;;;;;0.50;0.10;;;10.10;1.00;;;;;;4948911;28;20462;-69
2022/11/08 07:30:23;;;;;;;0.50;0.10;;;10.20;1.00;;;;;;4961319;28;20474;-70
2022/11/08 07:32:52;;;;;;;0.50;0.10;;;10.20;1.00;;;;;;4966780;28;20462;-71
2022/11/08 07:35:20;;;;;;;0.50;0.20;;;10.20;1.00;;;;;;4973937;28;20450;-70
2022/11/08 07:37:48;;;;;;;0.50;0.10;;;10.20;1.00;;;;;;4967395;28;20479;-70
2022/11/08 07:40:16;;;;;;;0.50;0.10;;;10.20;1.00;;;;;;4970530;28;20517;-70
2022/11/08 07:42:44;;;;;;;0.50;0.10;;;10.20;1.00;;;;;;4973305;28;20446;-70
2022/11/08 07:45:32;;;;;;;0.50;0.10;;;10.30;1.00;;;;;;4974678;28;20573;-70
2022/11/08 07:48:03;;;;;;;0.50;0.10;;;10.30;1.00;;;;;;4974372;28;20458;-70
2022/11/08 07:50:38;;;;;;;0.50;0.10;;;10.30;1.00;;;;;;4955633;28;20562;-70
2022/11/08 07:53:06;;;;;;;0.50;0.10;;;10.30;1.00;;;;;;4955145;28;21004;-70
2022/11/08 07:55:36;;;;;;;0.50;0.10;;;10.40;1.00;;;;;;4955057;29;20485;-70
2022/11/08 07:58:05;;;;;;;0.50;0.10;;;10.40;1.00;;;;;;4955279;28;20484;-70
2022/11/08 08:00:36;;;;;;;0.50;0.10;;;10.40;1.00;;;;;;4973057;28;20450;-70
2022/11/08 08:03:08;;;;;;;0.50;0.10;;;10.50;1.00;;;;;;4972190;28;20481;-71
2022/11/08 08:05:38;;;;;;;0.50;0.10;;;10.50;1.00;;;;;;4973887;28;20989;-70
2022/11/08 08:08:07;;;;;;;0.50;0.10;;;10.50;1.00;;;;;;4969602;28;20485;-72
2022/11/08 08:10:35;;;;;;;0.50;0.10;;;10.60;1.00;;;;;;4967277;28;20487;-72
2022/11/08 08:13:05;;;;;;;0.50;0.10;;;10.60;1.00;;;;;;4954319;28;20455;-70
2022/11/08 08:15:32;;;;;;;0.50;0.10;;;10.60;1.00;;;;;;4953395;29;20522;-70
2022/11/08 08:18:01;;;;;;;0.50;0.10;;;10.60;1.00;;;;;;4954153;28;20962;-69
2022/11/08 08:20:31;;;;;;;0.50;0.10;;;10.70;1.00;;;;;;4970763;28;20446;-70
2022/11/08 08:23:00;;;;;;;0.50;0.10;;;10.70;1.00;;;;;;4973084;28;20480;-72
2022/11/08 08:25:29;;;;;;;0.50;0.20;;;10.80;1.00;;;;;;4973735;28;20458;-71
2022/11/08 08:27:59;;;;;;;0.50;0.10;;;10.80;1.00;;;;;;4969035;28;20842;-71
2022/11/08 08:30:28;;;;;;;0.50;0.10;;;10.80;1.00;;;;;;4970280;28;20478;-71
2022/11/08 08:33:05;;;;;;;0.50;0.10;;;10.80;1.00;;;;;;4971170;28;20537;-71
2022/11/08 08:35:55;;;;;;;0.50;0.10;;;10.90;1.00;;;;;;4973364;28;20471;-72
2022/11/08 08:38:23;;;;;;;0.50;0.10;;;10.90;1.00;;;;;;4973425;28;20454;-71
2022/11/08 08:40:51;;;;;;;0.50;0.10;;;10.90;1.00;;;;;;4958102;28;20498;-70
2022/11/08 08:43:19;;;;;;;0.50;0.10;;;10.90;1.00;;;;;;4969822;28;20455;-69
2022/11/08 08:45:48;;;;;;;0.50;0.10;;;11.00;1.00;;;;;;4973991;28;20812;-71
2022/11/08 08:48:16;;;;;;;0.50;0.10;;;11.10;1.00;;;;;;4965494;28;20450;-70
2022/11/08 08:50:44;;;;;;;1.80;1.70;;;11.20;1.00;;;;;;4960735;28;20483;-70
2022/11/08 08:53:13;;;;;;;0.50;0.10;;;11.20;1.00;;;;;;4953915;28;20489;-71
2022/11/08 08:55:41;;;;;;;0.50;0.10;;;11.20;1.00;;;;;;4954390;28;20463;-70
2022/11/08 08:58:09;;;;;;;0.50;0.10;;;11.20;1.00;;;;;;4949588;28;20467;-70
2022/11/08 09:00:37;;;;;;;0.50;0.10;;;11.20;1.00;;;;;;4947390;29;20455;-69
2022/11/08 09:03:25;;;;;;;0.50;0.10;;;11.20;1.00;;;;;;4956056;28;20511;-72
2022/11/08 09:05:54;;;;;;;0.50;0.10;;;11.30;1.00;;;;;;4953926;28;20894;-70
2022/11/08 09:08:24;;;;;;;0.50;0.10;;;11.30;1.00;;;;;;4953653;29;20447;-69
2022/11/08 09:10:55;;;;;;;0.50;0.10;;;11.30;1.00;;;;;;4962067;28;20573;-70
2022/11/08 09:13:26;;;;;;;0.50;0.10;;;11.40;1.00;;;;;;4954410;28;20514;-70
2022/11/08 09:16:01;;;;;;;0.50;0.10;;;11.40;1.00;;;;;;4953432;28;20570;-70
2022/11/08 09:18:30;;;;;;;0.50;0.10;;;11.50;1.00;;;;;;4958830;28;20457;-72
2022/11/08 09:21:04;;;;;;;0.50;0.10;;;11.50;1.00;;;;;;4950248;28;20462;-70
2022/11/08 09:23:34;;;;;;;0.50;0.10;;;11.60;1.00;;;;;;4952185;28;20825;-72
2022/11/08 09:26:07;;;;;;;0.50;0.10;;;11.60;1.00;;;;;;4955290;28;20475;-71
2022/11/08 09:28:37;;;;;;;0.60;0.10;;;11.60;1.00;;;;;;4953225;28;20442;-72
2022/11/08 09:31:11;;;;;;;0.60;0.10;;;11.70;1.00;;;;;;4956842;28;20912;-70
2022/11/08 09:33:45;;;;;;;0.60;0.20;;;11.70;1.00;;;;;;4955254;28;20450;-70
2022/11/08 09:36:15;;;;;;;0.50;0.10;;;11.80;1.00;;;;;;4956059;28;20531;-72
2022/11/08 09:38:45;;;;;;;0.50;0.10;;;11.80;1.00;;;;;;4954075;28;20457;-70
2022/11/08 09:41:44;;;;;;;0.50;0.10;;;11.90;1.00;;;;;;4960358;28;21008;-72
2022/11/08 09:44:39;;;;;;;0.50;0.10;;;12.00;1.00;;;;;;4961808;28;20924;-70
2022/11/08 09:47:15;;;;;;;0.60;0.10;;;12.30;1.00;;;;;;4976964;28;20516;-71
2022/11/08 09:49:49;;;;;;;0.50;0.10;;;12.40;1.00;;;;;;4971779;28;20465;-70
2022/11/08 09:52:30;;;;;;;0.73;0.73;;;12.40;1.00;;;;;;4956922;28;20545;-70
2022/11/08 09:55:13;;;;;;;0.60;0.10;;;12.50;1.00;;;;;;4966998;28;20472;-71
2022/11/08 09:57:53;;;;;;;0.60;0.10;;;12.70;1.00;;;;;;4972788;28;20458;-71
2022/11/08 10:00:22;;;;;;;0.60;0.10;;;12.80;1.00;;;;;;4959119;28;20462;-71
2022/11/08 10:02:52;;;;;;;0.60;0.10;;;12.90;1.00;;;;;;4957495;28;20834;-71
2022/11/08 10:05:21;;;;;;;0.60;0.10;;;13.00;1.00;;;;;;4969545;28;20517;-71
2022/11/08 10:07:57;;;;;;;0.60;0.10;;;13.00;1.00;;;;;;4974818;28;20457;-71
2022/11/08 10:10:54;;;;;;;0.60;0.10;;;13.00;1.00;;;;;;4961918;28;20461;-70
2022/11/08 10:13:30;;;;;;;0.60;0.10;;;13.10;1.00;;;;;;4961391;28;20442;-72
2022/11/08 10:16:06;;;;;;;0.60;0.10;;;13.30;1.00;;;;;;4958024;28;20480;-71
2022/11/08 10:18:55;;;;;;;0.60;0.10;;;13.30;1.00;;;;;;4956691;28;20458;-70
2022/11/08 10:21:53;;;;;;;0.60;0.10;;;13.40;1.00;;;;;;4962008;28;20505;-71
2022/11/08 10:24:36;;;;;;;0.60;0.10;;;13.40;1.00;;;;;;4950192;28;20453;-71
2022/11/08 10:27:16;;;;;;;0.60;0.10;;;13.60;1.00;;;;;;4976203;28;20468;-72
2022/11/08 10:29:54;;;;;;;0.60;0.10;;;13.70;1.00;;;;;;4974078;28;20453;-72
2022/11/08 10:32:24;;;;;;;0.60;0.10;;;13.70;1.00;;;;;;4975500;28;20577;-71
2022/11/08 10:34:58;;;;;;;0.60;0.10;;;13.80;1.00;;;;;;4968899;28;20451;-69
2022/11/08 10:37:32;;;;;;;0.60;0.10;;;13.80;1.00;;;;;;4957737;28;20553;-71
2022/11/08 10:40:12;;;;;;;0.60;0.10;;;14.00;1.00;;;;;;4970460;28;20459;-70
2022/11/08 10:42:47;;;;;;;0.60;0.10;;;14.20;1.00;;;;;;4956063;28;20451;-72
2022/11/08 10:45:17;;;;;;;0.60;0.10;;;14.20;1.00;;;;;;4970923;28;20861;-72
2022/11/08 10:47:48;;;;;;;17.47;16.67;;;14.30;1.00;;;;;;4965175;28;20454;-71
2022/11/08 10:50:22;;;;;;;0.60;0.10;;;14.30;1.00;;;;;;4969171;28;20461;-70
2022/11/08 10:53:00;;;;;;;0.60;0.10;;;14.30;1.00;;;;;;4964522;28;20515;-71
2022/11/08 10:55:57;;;;;;;0.60;0.10;;;14.40;1.00;;;;;;4970690;28;20466;-72
2022/11/08 10:58:38;;;;;;;1.23;0.87;;;14.40;1.00;;;;;;4973445;28;20445;-71
2022/11/08 11:01:14;;;;;;;0.90;0.67;;;14.50;1.00;;;;;;4974709;28;20461;-72
2022/11/08 11:03:48;;;;;;;0.60;0.10;;;14.60;1.00;;;;;;4974003;28;20453;-71
2022/11/08 11:06:28;;;;;;;0.60;0.30;;;14.70;1.00;;;;;;4955845;29;20507;-70
2022/11/08 11:08:59;;;;;;;0.60;0.20;;;14.70;1.00;;;;;;4973049;28;20459;-70
2022/11/08 11:11:36;;;;;;;0.60;0.10;;;14.70;1.00;;;;;;4955505;28;20494;-71
2022/11/08 11:14:13;;;;;;;1.13;1.03;;;14.70;1.00;;;;;;4969472;28;20572;-71
2022/11/08 11:16:55;;;;;;;0.60;0.30;;;14.90;1.00;;;;;;4979908;23;20526;-76
2022/11/08 11:19:24;;;;;;;0.60;0.30;;;14.90;1.00;;;;;;4957043;29;20565;-76
2022/11/08 11:21:57;;;;;;;0.60;0.30;;;14.90;1.00;;;;;;4957697;29;20454;-76
2022/11/08 11:24:25;;;;;;;0.60;0.10;;;14.90;1.00;;;;;;4958597;29;20514;-77
2022/11/08 11:27:05;;;;;;;0.60;0.10;;;14.90;1.00;;;;;;4964589;28;20585;-77
2022/11/08 11:29:36;;;;;;;0.60;0.20;;;14.90;1.00;;;;;;4967272;28;20530;-77
2022/11/08 11:32:24;;;;;;;0.60;0.10;;;14.80;1.00;;;;;;4965071;28;20534;-77
2022/11/08 11:34:55;;;;;;;0.60;0.20;;;14.80;1.00;;;;;;4974253;28;20450;-76
2022/11/08 11:37:36;;;;;;;0.70;0.60;;;14.90;1.00;;;;;;4979352;28;20988;-78
2022/11/08 11:40:14;;;;;;;0.60;0.10;;;15.00;1.00;;;;;;4965519;28;20446;-75
2022/11/08 11:42:47;;;;;;;4.67;1.03;;;15.00;1.00;;;;;;4972198;28;20489;-77
2022/11/08 11:45:20;;;;;;;0.60;0.10;;;14.10;1.00;;;;;;4979080;28;20458;-76
2022/11/08 11:47:53;;;;;;;0.60;0.10;;;15.00;1.00;;;;;;4961788;28;20467;-76
2022/11/08 11:50:31;;;;;;;0.60;0.10;;;15.00;1.00;;;;;;4976615;28;20522;-78
2022/11/08 11:53:03;;;;;;;2.37;2.27;;;15.00;1.00;;;;;;4983836;28;20508;-77
2022/11/08 11:55:40;;;;;;;0.60;0.10;;;;;;;;;;4967471;28;20977;-79
2022/11/08 11:58:24;;;;;;;0.60;0.10;;;15.00;1.00;;;;;;4957228;28;20455;-78
2022/11/08 12:00:59;;;;;;;0.60;0.10;;;15.10;1.00;;;;;;4974140;28;20797;-77
2022/11/08 12:03:40;;;;;;;0.60;0.10;;;15.10;1.00;;;;;;4957871;28;20508;-78
2022/11/08 12:06:28;;;;;;;0.60;0.10;;;15.20;99.90;;;;;;4963251;29;20490;-76
2022/11/08 12:09:13;;;;;;;1.07;0.77;;;15.20;1.00;;;;;;4960924;28;20549;-78
2022/11/08 12:11:53;;;;;;;0.60;0.17;;;15.20;1.00;;;;;;4972277;28;20459;-78
2022/11/08 12:14:43;;;;;;;0.60;0.13;;;15.20;1.00;;;;;;4961085;28;20451;-78
2022/11/08 12:17:33;;;;;;;0.60;0.10;;;15.30;1.00;;;;;;4969296;28;20482;-79
2022/11/08 12:20:17;;;;;;;0.60;0.10;;;15.30;1.00;;;;;;4964215;28;20495;-77
2022/11/08 12:23:06;;;;;;;0.60;0.10;;;15.40;1.00;;;;;;4965644;28;20527;-74
2022/11/08 12:25:43;;;;;;;0.60;0.10;;;15.40;1.00;;;;;;4968073;28;20555;-77
2022/11/08 12:28:28;;;;;;;2.70;0.50;;;15.40;99.90;;;;;;4967050;29;20506;-77
2022/11/08 12:31:05;;;;;;;0.60;0.10;;;15.40;99.90;;;;;;4946894;29;20455;-79
2022/11/08 12:33:44;;;;;;;0.60;0.10;;;15.50;1.00;;;;;;4967742;28;20531;-78
2022/11/08 12:36:22;;;;;;;0.60;0.10;;;15.60;99.90;;;;;;4980364;28;20537;-79
2022/11/08 12:39:02;;;;;;;0.60;0.10;;;15.60;99.90;;;;;;4979321;28;20518;-78
2022/11/08 12:41:41;;;;;;;0.60;0.20;;;15.60;99.90;;;;;;4967440;28;20447;-78
2022/11/08 12:44:37;;;;;;;0.60;0.10;;;15.60;1.00;;;;;;4965419;29;20446;-76
2022/11/08 12:47:16;;;;;;;0.60;0.10;;;15.60;1.00;;;;;;4981978;28;20503;-77
2022/11/08 12:49:55;;;;;;;0.60;0.10;;;15.70;99.90;;;;;;4967131;28;20455;-77
2022/11/08 12:52:38;;;;;;;0.60;0.10;;;15.70;1.00;;;;;;4978078;28;20479;-78
2022/11/08 12:55:13;;;;;;;0.60;0.10;;;15.70;99.90;;;;;;4966378;29;20950;-77
2022/11/08 12:57:42;;;;;;;0.60;0.10;;;15.70;99.90;;;;;;4980721;28;20470;-79
2022/11/08 13:00:16;;;;;;;0.60;0.10;;;15.80;1.00;;;;;;4985648;28;20488;-77
2022/11/08 13:02:50;;;;;;;0.60;0.10;;;15.90;1.00;;;;;;4990830;28;20449;-78
2022/11/08 13:05:24;;;;;;;0.60;0.10;;;15.90;99.90;;;;;;4990601;28;20448;-78
2022/11/08 13:08:10;;;;;;;0.60;0.13;;;16.00;99.90;;;;;;4976060;28;20494;-77
2022/11/08 13:10:48;;;;;;;0.60;0.20;;;16.00;99.90;;;;;;4981297;28;20526;-76
2022/11/08 13:13:27;;;;;;;0.60;0.10;;;16.10;99.90;;;;;;4986030;28;20489;-76
2022/11/08 13:16:14;;;;;;;0.60;0.10;;;16.30;99.90;;;;;;4985026;28;20457;-77
2022/11/08 13:18:47;;;;;;;0.60;0.20;;;16.30;99.90;;;;;;4968088;28;20461;-76
2022/11/08 13:21:41;;;;;;;0.60;0.30;;;16.40;99.90;;;;;;4959654;28;20830;-77
2022/11/08 13:24:34;;;;;;;0.60;0.10;;;16.40;99.90;;;;;;4949717;28;20458;-80
2022/11/08 13:27:34;;;;;;;0.60;0.10;;;16.50;99.90;;;;;;4969693;28;20477;-77
2022/11/08 13:30:37;;;;;;;0.60;0.10;;;16.50;99.90;;;;;;4977263;28;20456;-77
2022/11/08 13:33:14;;;;;;;0.60;0.10;;;16.50;99.90;;;;;;4964246;28;20550;-79
2022/11/08 13:35:49;;;;;;;0.60;0.10;;;16.40;99.90;;;;;;4979663;28;20431;-76
2022/11/08 13:38:29;;;;;;;0.60;0.10;;;16.40;99.90;;;;;;4964693;29;20459;-78
2022/11/08 13:41:19;;;;;;;0.60;0.10;;;16.40;99.90;;;;;;4965014;29;20438;-77
2022/11/08 13:43:49;;;;;;;0.60;0.10;;;16.40;99.90;;;;;;4947244;29;20910;-78
2022/11/08 13:46:48;;;;;;;0.60;0.10;;;16.30;99.90;;;;;;4960090;29;20465;-77
2022/11/08 13:49:22;;;;;;;0.60;0.10;;;16.30;99.90;;;;;;4961335;28;20478;-79
2022/11/08 13:52:10;;;;;;;0.60;0.10;;;16.20;99.90;;;;;;4961442;28;20972;-79
2022/11/08 13:54:51;;;;;;;0.60;0.10;;;16.10;99.90;;;;;;4967151;28;20522;-80
2022/11/08 13:57:41;;;;;;;0.60;0.10;;;16.10;99.90;;;;;;4956052;29;20466;-77
2022/11/08 14:00:35;;;;;;;0.60;0.10;;;16.10;99.90;;;;;;4960460;28;20530;-79
2022/11/08 14:03:42;;;;;;;0.60;0.10;;;16.10;99.90;;;;;;4960985;28;20439;-79
2022/11/08 14:06:16;;;;;;;0.60;0.10;;;16.00;99.90;;;;;;4982240;28;21046;-77
2022/11/08 14:08:50;;;;;;;0.60;0.20;;;16.00;99.90;;;;;;4979044;28;20953;-79
2022/11/08 14:11:53;;;;;;;0.60;0.10;;;16.00;99.90;;;;;;4949354;29;20970;-77
2022/11/08 14:14:38;;;;;;;0.60;0.10;;;16.00;99.90;;;;;;4863756;29;20511;-80
2022/11/08 14:17:28;;;;;;;0.60;0.10;;;16.00;99.90;;;;;;4951669;29;20853;-79
2022/11/08 14:20:06;;;;;;;0.60;0.10;;;16.00;99.90;;;;;;4967737;28;20453;-77
2022/11/08 14:22:35;;;;;;;0.60;0.20;;;16.00;99.90;;;;;;4965323;28;20446;-79
2022/11/08 14:25:20;;;;;;;0.73;0.50;;;16.00;99.90;;;;;;4957087;28;20451;-79
2022/11/08 14:27:48;;;;;;;0.60;0.20;;;15.90;99.90;;;;;;4959872;29;20981;-77
2022/11/08 14:30:19;;;;;;;0.60;0.10;;;15.90;99.90;;;;;;4965027;28;20462;-77
2022/11/08 14:32:48;;;;;;;0.60;0.20;;;15.80;99.90;;;;;;4961270;29;20498;-78
2022/11/08 14:35:24;;;;;;;0.70;0.20;;;15.80;99.90;;;;;;4963070;28;20950;-78
2022/11/08 14:37:53;;;;;;;0.60;0.10;;;15.80;99.90;;;;;;4943478;29;20459;-79
2022/11/08 14:40:23;;;;;;;0.60;0.23;;;15.80;99.90;;;;;;4966882;28;20508;-78
2022/11/08 14:42:52;;;;;;;0.60;0.10;;;15.80;99.90;;;;;;4962334;28;20453;-78
2022/11/08 14:45:22;;;;;;;0.60;0.10;;;15.80;99.90;;;;;;4982139;28;20445;-79
2022/11/08 14:48:01;;;;;;;0.60;0.10;;;16.20;99.90;;;;;;4942042;29;20499;-80
2022/11/08 14:50:31;;;;;;;0.60;0.10;;;15.70;99.90;;;;;;4968459;28;20953;-78
2022/11/08 14:53:25;;;;;;;0.60;0.10;;;15.70;99.90;;;;;;4970182;28;20521;-78
2022/11/08 14:56:14;;;;;;;0.60;0.10;;;15.60;99.90;;;;;;4980346;28;20450;-78
2022/11/08 14:58:42;;;;;;;0.60;0.10;;;15.60;99.90;;;;;;4964645;28;20735;-80
2022/11/08 15:01:12;;;;;;;0.60;0.10;;;15.60;99.90;;;;;;4982731;28;20469;-78
2022/11/08 15:03:47;;;;;;;0.60;0.10;;;15.60;99.90;;;;;;4974619;28;20819;-78
2022/11/08 15:06:15;;;;;;;0.60;0.10;;;15.50;99.90;;;;;;4990171;28;20490;-77
2022/11/08 15:08:49;;;;;;;0.60;0.10;;;15.50;99.90;;;;;;4981167;28;20521;-79
2022/11/08 15:11:28;;;;;;;0.60;0.10;;;15.50;99.90;;;;;;4967342;29;20466;-77
2022/11/08 15:13:59;;;;;;;0.60;0.10;;;15.50;99.90;;;;;;4975712;29;20482;-77
2022/11/08 15:16:27;;;;;;;0.60;0.10;;;15.40;99.90;;;;;;4975216;29;20494;-78
2022/11/08 15:18:56;;;;;;;0.60;0.10;;;15.50;99.90;;;;;;4973187;29;20516;-79
2022/11/08 15:21:29;;;;;;;0.60;0.10;;;15.40;99.90;;;;;;4962676;29;20451;-78
2022/11/08 15:24:16;;;;;;;0.60;0.10;;;15.40;99.90;;;;;;4962462;28;20456;-79
2022/11/08 15:27:01;;;;;;;0.60;0.47;;;15.30;99.90;;;;;;4964070;29;20471;-78
2022/11/08 15:29:29;;;;;;;0.60;0.10;;;15.30;99.90;;;;;;4962237;29;20438;-78
2022/11/08 15:31:59;;;;;;;0.60;0.10;;;15.30;99.90;;;;;;4960492;29;20455;-78
2022/11/08 15:34:36;;;;;;;0.60;0.10;;;15.30;99.90;;;;;;4976894;28;20540;-80
2022/11/08 15:37:19;;;;;;;0.60;0.20;;;15.20;99.90;;;;;;4977920;28;20485;-79
2022/11/08 15:39:47;;;;;;;0.60;0.10;;;15.20;99.90;;;;;;4977608;28;20458;-78
2022/11/08 15:42:17;;;;;;;0.60;0.10;;;15.10;99.90;;;;;;4978690;28;20482;-78
2022/11/08 15:44:58;;;;;;;0.60;0.10;;;15.20;99.90;;;;;;4983358;28;20470;-77
2022/11/08 15:47:36;;;;;;;0.70;0.40;;;15.20;99.90;;;;;;4980422;28;20465;-79
2022/11/08 15:50:15;;;;;;;0.60;0.10;;;15.10;99.90;;;;;;4975255;28;20483;-78
2022/11/08 15:52:43;;;;;;;0.60;0.10;;;15.10;99.90;;;;;;4959518;29;21097;-77
2022/11/08 15:55:14;;;;;;;0.60;0.10;;;15.10;99.90;;;;;;4960548;29;20475;-76
2022/11/08 15:57:44;;;;;;;0.60;0.10;;;15.10;99.90;;;;;;4959218;29;20498;-78
2022/11/08 16:00:16;;;;;;;0.60;0.10;;;15.10;99.90;;;;;;4961351;28;20482;-78
2022/11/08 16:02:44;;;;;;;0.60;0.10;;;15.10;99.90;;;;;;4961149;29;20440;-77
2022/11/08 16:05:20;;;;;;;0.60;0.20;;;15.10;99.90;;;;;;4959438;29;20447;-78
2022/11/08 16:07:48;;;;;;;0.60;0.10;;;15.00;99.90;;;;;;4959777;29;20482;-79
2022/11/08 16:10:18;;;;;;;0.60;0.10;;;15.00;99.90;;;;;;4966081;29;20447;-79
2022/11/08 16:12:47;;;;;;;0.60;0.10;;;15.00;99.90;;;;;;4970693;28;20451;-77
2022/11/08 16:15:19;;;;;;;0.60;0.20;;;15.00;99.90;;;;;;4970278;28;20479;-78
2022/11/08 16:17:47;;;;;;;1.97;1.87;;;15.00;99.90;;;;;;4970722;29;20479;-77
2022/11/08 16:20:23;;;;;;;0.60;0.10;;;15.00;99.90;;;;;;4959511;28;20490;-77
2022/11/08 16:22:51;;;;;;;0.60;0.30;;;15.00;99.90;;;;;;4962414;29;20470;-77
2022/11/08 16:25:19;;;;;;;0.60;0.10;;;15.00;99.90;;;;;;4958554;29;20482;-78
2022/11/08 16:27:51;;;;;;;0.60;0.10;;;14.90;99.90;;;;;;4957904;29;20993;-78
2022/11/08 16:30:19;;;;;;;0.60;0.20;;;15.00;99.90;;;;;;4970269;28;20458;-76
2022/11/08 16:32:47;;;;;;;0.60;0.10;;;14.90;99.90;;;;;;4977367;28;20951;-76
2022/11/08 16:35:16;;;;;;;0.60;0.27;;;14.90;99.90;;;;;;4965843;28;20890;-75
2022/11/08 16:37:46;;;;;;;0.60;0.10;;;14.90;99.90;;;;;;4955491;29;20467;-76
2022/11/08 16:40:16;;;;;;;0.60;0.10;;;14.90;99.90;;;;;;4966767;28;20454;-77
2022/11/08 16:42:45;;;;;;;0.60;0.10;;;14.90;99.90;;;;;;4959009;28;20502;-77
2022/11/08 16:45:13;;;;;;;0.60;0.10;;;14.80;99.90;;;;;;4956401;29;20459;-76
2022/11/08 16:47:42;;;;;;;1.90;1.80;;;14.80;99.90;;;;;;4955824;29;20466;-75
2022/11/08 16:50:16;;;;;;;0.60;0.10;;;14.80;99.90;;;;;;4964872;28;20532;-76
2022/11/08 16:52:46;;;;;;;0.60;0.10;;;14.80;99.90;;;;;;4974877;28;20517;-76
2022/11/08 16:55:16;;;;;;;0.60;0.10;;;14.80;99.90;;;;;;4974838;28;20485;-77
2022/11/08 16:57:45;;;;;;;0.60;0.10;;;14.70;99.90;;;;;;4970496;28;20483;-76
2022/11/08 17:00:15;;;;;;;0.60;0.10;;;14.70;99.90;;;;;;4966095;28;20454;-77
2022/11/08 17:02:46;;;;;;;0.60;0.10;;;13.10;99.90;;;;;;4974467;28;20812;-77
2022/11/08 17:05:20;;;;;;;0.60;0.10;;;14.70;99.90;;;;;;4968099;28;20435;-75
2022/11/08 17:07:50;;;;;;;0.60;0.10;;;14.70;99.90;;;;;;4957160;29;20470;-76
2022/11/08 17:10:20;;;;;;;0.60;0.10;;;14.60;99.90;;;;;;4954824;28;20447;-77
2022/11/08 17:12:48;;;;;;;0.60;0.10;;;14.60;99.90;;;;;;4955744;29;20510;-76
2022/11/08 17:15:18;;;;;;;0.60;0.10;;;14.70;99.90;;;;;;4955712;29;20530;-77
2022/11/08 17:17:47;;;;;;;0.60;0.10;;;14.50;99.90;;;;;;4956562;23;21017;-72
2022/11/08 17:20:18;;;;;;;0.60;0.10;;;14.60;99.90;;;;;;4934316;29;20447;-72
2022/11/08 17:22:50;;;;;;;0.60;0.10;;;14.60;99.90;;;;;;4934179;29;20970;-73
2022/11/08 17:25:19;;;;;;;0.60;0.10;;;14.60;99.90;;;;;;4933918;29;20443;-72
2022/11/08 17:27:48;;;;;;;0.60;0.10;;;14.20;99.90;;;;;;4934480;29;20990;-71
2022/11/08 17:30:17;;;;;;;0.60;0.10;;;14.50;99.90;;;;;;4934603;29;21014;-71
2022/11/08 17:32:52;;;;;;;0.60;0.10;;;14.50;99.90;;;;;;4934647;29;20444;-72
2022/11/08 17:35:20;;;;;;;0.60;0.10;;;;;;;;;;4935024;29;20483;-72
2022/11/08 17:37:49;;;;;;;0.60;0.10;;;14.50;99.90;;;;;;4936038;29;20898;-73
2022/11/08 17:40:17;;;;;;;0.60;0.10;;;14.50;1.00;;;;;;4932467;29;20460;-73
2022/11/08 17:42:45;;;;;;;0.60;0.10;;;14.50;1.00;;;;;;4926662;29;20448;-73